Hawthorn Woods, Illinois
Current Conditions -  °F | °C
As of 6:52 AM on Friday 24 Oct 2014 (Local Time) from KPWK Reporting Station
Overcast Overcast  
Wind Chill: 53°   Ceiling: 2900
Heat Index: 53°   Visibility: 10mi
Dew Point: 45°   Wind: 0mph
Humidity: 74%   Direction: NA
Pressure: 30.06"   Gusts: NA
Location:  42.201°N, 88.0504°W
Report Text: KPWK 241152Z 00000KT 10SM OVC029 12/07 A3006 RMK AO2 SLP181 T01170072 10133 20094 50001
Loading
Personal Weather Stations






























Interactive Weather Map
Tropical Storm Tracking
New forecast layout! Learn more

10-Day Weather Forecast

Advertisements
Track Severe Weather on mobile